Time;durP1;ratioP1;P1;durP2;ratioP2;P2;SDS_P1;SDS_P2;PMS_P1;PMS_P2;Temp;Humidity;BMP_temperature;BMP_pressure;BME280_temperature;BME280_humidity;BME280_pressure;Samples;Min_cycle;Max_cycle;Signal;HPM_P1;HPM_P2
2023/05/30 00:01:24;;;;;;;0.40;0.40;;;22.00;50.40;;;22.55;34.93;95129.78;5014519;28;20203;-47
2023/05/30 00:03:51;;;;;;;0.50;0.50;;;22.00;50.40;;;22.53;34.50;95131.94;5014872;28;20210;-47
2023/05/30 00:06:19;;;;;;;0.40;0.40;;;22.00;50.50;;;22.52;34.81;95134.84;5014427;28;20197;-47
2023/05/30 00:08:46;;;;;;;0.40;0.40;;;22.00;50.50;;;22.49;34.76;95130.84;5014403;28;20225;-47
2023/05/30 00:11:13;;;;;;;0.40;0.40;;;21.90;50.50;;;22.47;34.48;95135.66;5013992;28;20190;-47
2023/05/30 00:13:44;;;;;;;0.40;0.40;;;21.90;50.70;;;22.46;35.13;95138.56;5013567;28;20229;-47
2023/05/30 00:16:12;;;;;;;0.40;0.40;;;21.90;50.70;;;22.44;35.06;95135.38;5014898;28;20180;-46
2023/05/30 00:18:40;;;;;;;0.50;0.50;;;21.90;50.70;;;22.40;35.21;95129.75;5014311;28;20205;-47
2023/05/30 00:21:10;;;;;;;0.40;0.40;;;21.90;50.80;;;22.37;35.18;95141.75;5013293;28;20206;-47
2023/05/30 00:23:39;;;;;;;0.40;0.40;;;21.80;50.80;;;22.35;35.12;95137.69;5014073;28;20678;-47
2023/05/30 00:26:09;;;;;;;0.30;0.30;;;21.80;52.10;;;22.34;35.52;95138.78;5014155;28;20270;-47
2023/05/30 00:28:37;;;;;;;0.30;0.30;;;21.80;50.80;;;22.29;35.06;95136.88;5014245;28;20216;-47
2023/05/30 00:31:05;;;;;;;0.38;0.38;;;21.80;50.90;;;22.28;35.21;95137.16;5012973;28;20233;-48
2023/05/30 00:33:33;;;;;;;0.30;0.30;;;21.80;50.90;;;22.25;35.03;95132.31;5013890;28;20197;-47
2023/05/30 00:36:00;;;;;;;0.40;0.40;;;21.70;50.90;;;22.23;35.70;95133.38;5013075;28;20220;-48
2023/05/30 00:38:27;;;;;;;0.40;0.40;;;21.70;50.90;;;22.20;35.14;95136.59;5014234;28;20580;-48
2023/05/30 00:40:54;;;;;;;0.52;0.52;;;21.70;51.00;;;22.19;35.52;95131.47;5013914;28;20294;-51
2023/05/30 00:43:22;;;;;;;0.40;0.40;;;21.70;50.90;;;22.18;35.35;95136.03;5013733;28;20635;-47
2023/05/30 00:45:53;;;;;;;0.40;0.40;;;21.60;50.90;;;22.15;35.20;95133.88;5014400;28;20292;-47
2023/05/30 00:48:21;;;;;;;0.40;0.40;;;21.70;51.00;;;22.14;35.10;95134.13;5012850;28;20278;-48
2023/05/30 00:50:50;;;;;;;0.30;0.30;;;21.60;50.90;;;22.12;35.38;95136.25;5012925;28;20643;-48
2023/05/30 00:53:19;;;;;;;0.30;0.30;;;21.60;51.00;;;22.10;35.27;95136.50;5013676;28;20212;-51
2023/05/30 00:55:46;;;;;;;0.40;0.40;;;21.60;51.10;;;22.07;35.46;95134.38;4996613;28;20711;-47
2023/05/30 00:58:14;;;;;;;0.47;0.47;;;21.60;51.40;;;22.06;35.56;95135.44;5012723;28;20205;-47
2023/05/30 01:00:41;;;;;;;0.50;0.50;;;21.50;51.20;;;22.02;35.42;95135.16;5013795;28;20194;-50
2023/05/30 01:03:09;;;;;;;0.32;0.32;;;21.50;51.20;;;22.00;35.61;95139.94;5012511;28;20238;-48
2023/05/30 01:05:37;;;;;;;0.40;0.40;;;21.50;51.30;;;21.98;35.56;95128.69;5013814;28;20199;-47
2023/05/30 01:08:04;;;;;;;0.40;0.40;;;21.50;51.40;;;21.94;35.73;95127.63;5013693;28;20263;-47
2023/05/30 01:10:32;;;;;;;0.47;0.47;;;21.50;51.50;;;21.93;35.81;95134.00;5012547;28;20205;-49
2023/05/30 01:13:28;;;;;;;0.50;0.50;;;21.50;51.50;;;21.88;35.92;95126.78;5012262;28;20336;-48
2023/05/30 01:16:08;;;;;;;0.40;0.40;;;21.40;51.70;;;21.86;35.90;95125.44;5013457;28;20182;-47
2023/05/30 01:19:03;;;;;;;0.50;0.50;;;21.40;51.70;;;21.82;35.86;95127.81;5012645;28;20193;-48
2023/05/30 01:21:33;;;;;;;0.50;0.50;;;21.40;51.70;;;21.80;35.78;95131.78;5011343;28;20212;-51
2023/05/30 01:24:20;;;;;;;0.40;0.40;;;21.40;51.70;;;21.75;36.43;95127.22;5012342;28;20271;-47
2023/05/30 01:27:04;;;;;;;0.38;0.38;;;21.40;51.80;;;21.72;36.50;95125.88;5013260;28;20677;-50
2023/05/30 01:29:33;;;;;;;0.50;0.50;;;21.30;51.80;;;21.70;36.28;95128.03;5012222;28;20245;-50
2023/05/30 01:32:02;;;;;;;0.40;0.40;;;21.30;51.90;;;21.67;35.97;95130.41;5012840;28;20210;-51
2023/05/30 01:34:29;;;;;;;0.40;0.40;;;21.30;52.00;;;21.65;36.44;95133.28;4995909;28;20635;-46
2023/05/30 01:36:57;;;;;;;0.50;0.50;;;21.30;52.00;;;21.62;36.77;95128.50;5012232;28;20196;-47
2023/05/30 01:39:24;;;;;;;0.55;0.55;;;21.30;52.10;;;21.61;36.42;95124.22;5013518;28;20235;-47
2023/05/30 01:42:13;;;;;;;0.40;0.40;;;21.20;53.30;;;21.58;36.82;95133.53;4995865;28;20212;-47
2023/05/30 01:45:07;;;;;;;0.40;0.40;;;21.20;52.20;;;21.56;36.27;95140.16;5012442;28;20194;-47
2023/05/30 01:48:10;;;;;;;0.50;0.50;;;21.20;52.10;;;21.52;36.59;95147.06;4995771;28;20223;-47
2023/05/30 01:50:45;;;;;;;0.30;0.30;;;21.20;52.20;;;21.51;36.63;95143.59;4995830;28;20193;-47
2023/05/30 01:53:24;;;;;;;0.50;0.50;;;21.20;52.30;;;21.50;36.41;95149.97;4995633;28;20519;-47
2023/05/30 01:55:55;;;;;;;0.40;0.40;;;21.10;52.30;;;21.50;36.28;95149.97;5011852;28;20245;-47
2023/05/30 01:58:23;;;;;;;0.40;0.40;;;21.10;52.40;;;21.50;36.86;95149.19;4995701;28;20203;-47
2023/05/30 02:00:53;;;;;;;0.50;0.50;;;21.10;52.40;;;21.49;36.84;95151.03;5011881;28;20232;-47
2023/05/30 02:03:23;;;;;;;0.38;0.38;;;21.10;52.30;;;21.49;36.60;95152.91;5011828;28;20631;-47
2023/05/30 02:05:51;;;;;;;0.57;0.57;;;21.00;52.30;;;21.48;36.92;95153.97;5011779;28;20199;-46
2023/05/30 02:08:18;;;;;;;0.47;0.47;;;21.10;52.40;;;21.46;36.86;95150.75;5012517;28;20204;-47
2023/05/30 02:10:46;;;;;;;0.40;0.40;;;21.10;52.50;;;21.45;36.90;95152.63;5011672;28;20227;-46
2023/05/30 02:13:13;;;;;;;0.45;0.45;;;21.00;52.40;;;21.43;36.71;95147.53;5012973;28;20208;-47
2023/05/30 02:15:40;;;;;;;0.40;0.40;;;21.00;52.50;;;21.43;36.60;95147.53;5012531;28;20619;-47
2023/05/30 02:18:08;;;;;;;0.43;0.43;;;21.00;52.40;;;21.42;36.64;95159.28;5012496;28;20537;-47
2023/05/30 02:20:36;;;;;;;0.40;0.40;;;21.00;52.40;;;21.41;36.72;95141.66;5012488;28;20201;-47
2023/05/30 02:23:03;;;;;;;0.50;0.50;;;21.00;52.50;;;21.40;36.54;95149.91;5012248;28;20589;-46
2023/05/30 02:25:32;;;;;;;0.50;0.50;;;21.00;52.50;;;21.38;36.60;95144.81;5011422;28;20581;-46
2023/05/30 02:28:00;;;;;;;0.30;0.30;;;21.00;52.40;;;21.38;36.82;95152.03;5012568;28;20271;-48
2023/05/30 02:30:27;;;;;;;0.40;0.40;;;21.00;52.40;;;21.35;37.19;95139.19;5012156;28;20231;-47
2023/05/30 02:32:54;;;;;;;0.40;0.40;;;20.90;52.30;;;21.32;37.27;95137.81;5011542;28;20245;-49
2023/05/30 02:35:21;;;;;;;0.40;0.40;;;21.00;52.50;;;21.31;37.11;95143.41;5011276;28;20543;-47
2023/05/30 02:37:48;;;;;;;0.40;0.40;;;20.90;52.50;;;21.28;37.35;95142.06;5011255;28;20213;-48
2023/05/30 02:40:16;;;;;;;0.40;0.40;;;20.90;52.70;;;21.26;37.20;95141.50;5011259;28;20199;-49
2023/05/30 02:42:43;;;;;;;0.50;0.50;;;20.90;52.70;;;21.22;37.30;95135.06;5011271;28;20530;-48
2023/05/30 02:45:10;;;;;;;0.40;0.40;;;20.90;52.80;;;21.20;37.46;95132.69;5011171;28;20687;-46
2023/05/30 02:47:41;;;;;;;0.50;0.50;;;20.80;52.70;;;21.17;37.13;95135.03;5011180;28;20246;-48
2023/05/30 02:50:08;;;;;;;0.60;0.60;;;20.80;52.80;;;21.16;37.43;95139.56;5080586;28;20228;-46
2023/05/30 02:52:36;;;;;;;0.50;0.50;;;20.80;52.70;;;21.13;37.60;95133.91;5010908;28;20261;-48
2023/05/30 02:55:04;;;;;;;0.30;0.30;;;20.80;52.80;;;21.11;37.03;95142.97;5011069;28;20197;-47
2023/05/30 02:57:52;;;;;;;0.40;0.40;;;20.80;52.80;;;21.10;37.10;95132.56;5011303;28;20203;-49
2023/05/30 03:00:45;;;;;;;0.40;0.40;;;20.80;52.90;;;21.07;37.65;95146.41;5010759;28;20286;-50
2023/05/30 03:03:19;;;;;;;0.40;0.40;;;20.70;52.90;;;21.05;37.21;95140.53;5011293;28;20593;-47
2023/05/30 03:05:49;;;;;;;0.45;0.45;;;20.70;52.90;;;21.03;37.32;95148.78;5011577;28;20224;-51
2023/05/30 03:08:45;;;;;;;0.50;0.50;;;20.70;53.00;;;20.99;37.26;95147.66;5012067;28;20288;-47
2023/05/30 03:11:12;;;;;;;0.40;0.40;;;20.70;53.10;;;20.97;37.44;95143.63;5010920;28;20541;-51
2023/05/30 03:13:41;;;;;;;0.43;0.43;;;20.70;53.10;;;20.95;38.01;95149.22;5011671;28;20276;-47
2023/05/30 03:16:08;;;;;;;0.50;0.50;;;20.60;53.10;;;20.93;37.41;95148.66;5010832;28;20205;-47
2023/05/30 03:18:36;;;;;;;0.40;0.40;;;20.60;53.20;;;20.91;37.57;95151.59;5010773;28;20208;-50
2023/05/30 03:21:03;;;;;;;0.40;0.40;;;20.60;53.30;;;20.88;37.64;95154.75;5010728;28;20201;-48
2023/05/30 03:23:30;;;;;;;0.40;0.40;;;20.60;53.40;;;20.86;38.08;95150.72;4994531;28;20199;-46
2023/05/30 03:25:57;;;;;;;0.40;0.40;;;20.60;53.40;;;20.84;38.03;95152.84;5011898;28;20195;-46
2023/05/30 03:28:24;;;;;;;0.40;0.40;;;20.60;53.40;;;20.82;38.03;95155.75;4994405;28;20223;-46
2023/05/30 03:31:08;;;;;;;0.40;0.40;;;20.50;53.40;;;20.79;37.77;95157.06;5010535;28;20240;-46
2023/05/30 03:33:36;;;;;;;0.50;0.50;;;20.50;53.40;;;20.79;37.69;95165.06;5010453;28;20207;-46
2023/05/30 03:36:03;;;;;;;0.30;0.30;;;20.50;53.50;;;20.78;37.80;95163.44;5011809;28;20225;-46
2023/05/30 03:38:30;;;;;;;0.55;0.55;;;20.50;53.60;;;20.76;38.17;95162.91;5012291;28;20268;-47
2023/05/30 03:40:57;;;;;;;0.43;0.43;;;20.50;53.60;;;20.73;38.25;95163.41;5010570;28;20303;-46
2023/05/30 03:43:25;;;;;;;0.50;0.50;;;20.50;53.60;;;20.73;38.30;95171.41;4994236;28;20211;-46
2023/05/30 03:45:52;;;;;;;0.40;0.40;;;20.40;53.40;;;20.70;38.23;95163.06;5013005;28;20300;-48
2023/05/30 03:48:19;;;;;;;0.32;0.32;;;20.40;53.60;;;20.67;38.34;95164.38;5014961;28;20243;-46
2023/05/30 03:50:46;;;;;;;0.40;0.40;;;20.40;53.60;;;20.64;38.19;95175.50;5014672;28;20503;-46
2023/05/30 03:53:13;;;;;;;0.35;0.35;;;20.40;53.50;;;20.59;38.12;95168.28;5013690;28;20193;-46
2023/05/30 03:55:40;;;;;;;0.57;0.57;;;20.40;53.60;;;20.59;37.92;95178.13;5013655;28;20692;-46
2023/05/30 03:58:07;;;;;;;0.50;0.50;;;20.40;53.60;;;20.58;37.92;95179.16;5015061;28;20187;-46
2023/05/30 04:00:34;;;;;;;0.50;0.50;;;20.30;53.70;;;20.57;37.94;95175.72;5013561;28;20213;-46
2023/05/30 04:03:02;;;;;;;0.50;0.50;;;20.30;53.70;;;20.57;38.22;95180.25;5013477;28;20196;-47
2023/05/30 04:05:29;;;;;;;0.40;0.40;;;20.30;53.90;;;20.56;38.12;95182.09;5013525;28;20199;-46
2023/05/30 04:07:56;;;;;;;0.40;0.40;;;20.30;54.00;;;20.55;38.88;95182.34;5013816;28;20240;-46
2023/05/30 04:10:23;;;;;;;0.40;0.40;;;20.30;54.20;;;20.56;38.57;95186.63;5013487;28;20216;-46
2023/05/30 04:12:51;;;;;;;0.40;0.40;;;20.20;54.10;;;20.55;38.54;95182.34;5014622;28;20206;-46
2023/05/30 04:15:18;;;;;;;0.40;0.40;;;20.30;54.30;;;20.54;38.64;95184.19;5013233;28;20230;-47
2023/05/30 04:17:45;;;;;;;0.43;0.43;;;20.20;54.30;;;20.54;38.46;95180.72;5013347;28;20640;-47
2023/05/30 04:20:13;;;;;;;0.50;0.50;;;20.30;54.50;;;20.53;38.80;95190.59;5013310;28;20207;-46
2023/05/30 04:22:42;;;;;;;0.40;0.40;;;20.30;54.50;;;20.52;38.83;95194.31;5013255;28;20212;-46
2023/05/30 04:25:09;;;;;;;0.50;0.50;;;20.20;54.50;;;20.52;39.29;95196.97;5013060;28;20206;-46
2023/05/30 04:27:39;;;;;;;0.40;0.40;;;20.30;54.70;;;20.53;38.80;95208.44;5099508;28;20215;-46
2023/05/30 04:30:16;;;;;;;0.40;0.40;;;20.30;54.80;;;20.52;39.03;95201.47;5013006;28;20606;-49
2023/05/30 04:32:45;;;;;;;0.50;0.50;;;20.30;54.70;;;20.52;39.30;95207.63;5013126;28;20327;-46
2023/05/30 04:35:15;;;;;;;0.40;0.40;;;20.30;54.70;;;20.52;38.84;95204.97;5012944;28;20202;-46
2023/05/30 04:37:44;;;;;;;0.45;0.45;;;20.30;54.70;;;20.52;39.28;95202.31;5014578;28;20188;-46
2023/05/30 04:40:13;;;;;;;0.40;0.40;;;20.30;54.80;;;20.51;38.88;95207.84;5013311;28;20294;-48
2023/05/30 04:42:41;;;;;;;0.50;0.50;;;20.30;54.90;;;20.52;39.30;95217.47;5012972;28;20211;-47
2023/05/30 04:45:16;;;;;;;0.45;0.45;;;20.30;55.10;;;20.51;38.95;95214.00;5012846;28;20200;-46
2023/05/30 04:47:45;;;;;;;0.57;0.57;;;20.20;55.10;;;20.52;39.49;95209.47;5014161;28;20217;-49
2023/05/30 04:50:16;;;;;;;0.40;0.40;;;20.20;55.10;;;20.51;39.64;95211.34;5012799;28;20212;-47
2023/05/30 04:52:43;;;;;;;0.40;0.40;;;20.30;55.30;;;20.52;39.20;95217.47;5013824;28;20185;-50
2023/05/30 04:55:11;;;;;;;0.50;0.50;;;20.30;55.10;;;20.52;39.37;95215.63;5013467;28;20204;-46
2023/05/30 04:57:38;;;;;;;0.50;0.50;;;20.30;55.20;;;20.51;39.76;95214.00;5013695;28;20530;-47
2023/05/30 05:00:12;;;;;;;0.50;0.50;;;20.30;55.20;;;20.50;39.72;95214.25;5012743;28;20298;-50
2023/05/30 05:02:44;;;;;;;0.50;0.50;;;20.30;55.30;;;20.50;39.27;95219.59;5013577;28;20549;-46
2023/05/30 05:05:12;;;;;;;0.40;0.40;;;20.30;55.20;;;20.49;39.87;95229.44;5013636;28;20188;-47
2023/05/30 05:07:39;;;;;;;0.40;0.40;;;20.30;55.20;;;20.47;39.21;95221.69;5013780;28;20193;-49
2023/05/30 05:10:10;;;;;;;0.50;0.50;;;20.30;55.30;;;20.49;39.95;95224.09;5013423;28;20733;-47
2023/05/30 05:12:37;;;;;;;0.50;0.50;;;20.30;55.30;;;20.47;39.95;95219.03;5013462;28;20555;-48
2023/05/30 05:15:05;;;;;;;0.43;0.43;;;20.30;55.40;;;20.43;39.89;95217.09;5013318;28;20240;-46
2023/05/30 05:17:32;;;;;;;0.40;0.40;;;20.30;55.30;;;20.37;40.12;95218.09;5013592;28;20585;-46
2023/05/30 05:20:00;;;;;;;0.50;0.50;;;20.30;55.30;;;20.29;40.21;95221.97;5013864;28;20244;-45
2023/05/30 05:22:35;;;;;;;0.50;0.50;;;20.20;55.10;;;20.20;39.60;95216.28;5013606;28;20184;-45
2023/05/30 05:25:04;;;;;;;0.40;0.40;;;20.20;55.10;;;20.17;39.85;95210.63;5013153;28;20251;-46
2023/05/30 05:27:33;;;;;;;0.52;0.52;;;20.10;55.10;;;20.10;40.09;95216.94;5013224;28;20206;-45
2023/05/30 05:30:00;;;;;;;0.50;0.50;;;20.00;55.10;;;20.06;40.16;95218.47;5012959;28;20243;-45
2023/05/30 05:32:27;;;;;;;0.60;0.60;;;20.10;55.30;;;20.03;40.03;95221.63;5013505;28;20346;-46
2023/05/30 05:34:55;;;;;;;0.40;0.40;;;20.00;55.40;;;19.98;40.11;95222.34;5012980;28;20210;-48
2023/05/30 05:37:22;;;;;;;0.47;0.47;;;20.00;55.60;;;19.94;40.11;95223.88;5012115;28;20203;-48
2023/05/30 05:39:49;;;;;;;0.40;0.40;;;19.90;56.80;;;19.89;40.47;95218.47;5012996;28;20205;-46
2023/05/30 05:42:16;;;;;;;0.50;0.50;;;19.90;55.70;;;19.91;40.42;95213.72;5012172;28;20704;-47
2023/05/30 05:44:43;;;;;;;0.40;0.40;;;19.90;55.90;;;19.91;40.87;95218.22;5012298;28;20216;-46
2023/05/30 05:47:10;;;;;;;0.40;0.40;;;19.80;56.00;;;19.91;40.52;95218.22;5012127;28;20288;-46
2023/05/30 05:49:37;;;;;;;0.50;0.50;;;19.80;56.00;;;19.91;40.66;95218.22;5012837;28;20222;-46
2023/05/30 05:52:05;;;;;;;0.47;0.47;;;19.80;56.00;;;19.91;40.53;95212.91;5012890;28;20282;-49
2023/05/30 05:54:32;;;;;;;0.50;0.50;;;19.80;56.10;;;19.92;40.68;95220.66;5012763;28;20258;-46
2023/05/30 05:56:59;;;;;;;0.40;0.40;;;19.80;56.20;;;19.94;40.83;95221.19;5012840;28;20288;-47
2023/05/30 05:59:26;;;;;;;0.40;0.40;;;19.80;56.30;;;19.96;41.09;95224.44;5012003;28;20207;-47
2023/05/30 06:01:53;;;;;;;0.50;0.50;;;19.80;56.40;;;19.98;40.80;95227.66;5012992;28;20223;-48
2023/05/30 06:04:21;;;;;;;0.40;0.40;;;19.80;56.40;;;20.02;41.15;95225.34;5012570;28;20235;-47
2023/05/30 06:06:48;;;;;;;0.40;0.40;;;19.80;56.50;;;20.04;41.15;95225.88;5012621;28;20273;-46
2023/05/30 06:09:15;;;;;;;0.40;0.40;;;19.80;56.60;;;20.08;40.95;95227.03;5012249;28;20305;-48
2023/05/30 06:11:43;;;;;;;0.40;0.40;;;19.90;56.80;;;20.08;41.20;95228.84;5012851;28;20522;-46
2023/05/30 06:14:10;;;;;;;0.45;0.45;;;19.90;56.80;;;20.09;41.10;95236.63;5012673;28;20238;-46
2023/05/30 06:16:37;;;;;;;0.40;0.40;;;19.90;56.70;;;20.10;41.05;95234.75;5012738;28;20223;-47
2023/05/30 06:19:04;;;;;;;0.40;0.40;;;19.90;56.70;;;20.10;41.03;95235.56;5012934;28;20224;-48
2023/05/30 06:21:32;;;;;;;0.40;0.40;;;19.90;56.70;;;20.12;41.22;95241.44;5012464;28;20207;-47
2023/05/30 06:23:59;;;;;;;0.40;0.40;;;20.00;56.90;;;20.14;41.25;95239.34;5012977;28;20206;-49
2023/05/30 06:26:26;;;;;;;0.60;0.60;;;20.00;56.90;;;20.18;41.38;95246.84;5012304;28;20196;-49
2023/05/30 06:28:53;;;;;;;0.40;0.40;;;20.00;56.90;;;20.21;40.94;95254.34;5012304;28;20207;-49
2023/05/30 06:31:21;;;;;;;0.50;0.50;;;20.00;57.00;;;20.24;41.42;95261.88;5012251;28;20311;-50
2023/05/30 06:33:48;;;;;;;0.40;0.40;;;20.00;57.10;;;20.26;41.30;95257.91;5012815;28;20228;-50
2023/05/30 06:36:15;;;;;;;0.50;0.50;;;20.00;57.10;;;20.31;41.23;95257.16;5011210;28;20204;-49
2023/05/30 06:38:42;;;;;;;0.40;0.40;;;20.00;57.10;;;20.33;41.10;95257.72;5011753;28;20572;-50
2023/05/30 06:41:09;;;;;;;0.40;0.40;;;20.10;57.30;;;20.36;41.59;95259.91;5012138;28;20272;-49
2023/05/30 06:43:36;;;;;;;0.40;0.40;;;20.10;57.30;;;20.37;41.66;95255.38;5012565;28;20254;-48
2023/05/30 06:46:05;;;;;;;0.40;0.40;;;20.10;57.40;;;20.39;41.34;95259.41;5012028;28;20224;-50
2023/05/30 06:48:33;;;;;;;0.50;0.50;;;20.20;57.40;;;20.42;41.82;95266.94;5011331;28;20642;-53
2023/05/30 06:51:00;;;;;;;0.50;0.50;;;20.20;57.40;;;20.43;41.30;95265.88;5012004;28;20215;-45
2023/05/30 06:53:27;;;;;;;0.40;0.40;;;20.30;57.50;;;20.45;41.32;95269.09;5011142;28;20195;-49
2023/05/30 06:55:55;;;;;;;0.45;0.45;;;20.30;57.50;;;20.50;41.77;95272.88;5010975;28;20196;-47
2023/05/30 06:58:22;;;;;;;0.40;0.40;;;20.30;57.50;;;20.52;41.43;95271.59;5012628;28;20612;-48
2023/05/30 07:00:49;;;;;;;0.43;0.43;;;20.30;57.60;;;20.56;41.42;95267.38;5012343;28;20224;-47
2023/05/30 07:03:16;;;;;;;0.40;0.40;;;20.40;57.70;;;20.61;41.91;95279.97;5011272;28;20274;-45
2023/05/30 07:05:44;;;;;;;0.40;0.40;;;20.40;57.80;;;20.64;41.54;95285.59;5010851;28;20216;-45
2023/05/30 07:08:14;;;;;;;0.40;0.40;;;20.40;57.80;;;20.68;41.64;95287.75;5012044;28;20196;-45
2023/05/30 07:10:42;;;;;;;0.30;0.30;;;20.50;57.90;;;20.72;41.96;95280.94;5010884;28;20215;-45
2023/05/30 07:13:09;;;;;;;0.50;0.50;;;20.50;57.90;;;20.75;41.63;95289.25;5011158;28;20199;-46
2023/05/30 07:15:36;;;;;;;0.40;0.40;;;20.50;57.80;;;20.80;41.61;95291.19;5011898;28;20287;-44
2023/05/30 07:18:03;;;;;;;0.45;0.45;;;20.60;57.90;;;20.84;41.68;95294.16;5011804;28;20586;-47
2023/05/30 07:20:31;;;;;;;0.40;0.40;;;20.60;57.80;;;20.87;41.47;95296.31;5013955;28;20205;-49
2023/05/30 07:22:58;;;;;;;0.40;0.40;;;20.60;57.80;;;20.91;41.34;95287.56;5016318;28;20227;-46
2023/05/30 07:25:25;;;;;;;0.52;0.52;;;20.70;57.80;;;20.94;41.64;95288.94;5015346;28;20235;-46
2023/05/30 07:27:52;;;;;;;0.40;0.40;;;20.70;57.90;;;20.97;41.91;95298.28;5014207;28;20680;-44
2023/05/30 07:30:23;;;;;;;0.40;0.40;;;20.70;59.00;;;21.00;41.89;95289.81;5013903;28;20237;-54
2023/05/30 07:32:51;;;;;;;0.50;0.50;;;20.80;57.90;;;21.03;41.54;95294.63;5015467;28;20177;-45
2023/05/30 07:35:18;;;;;;;0.30;0.30;;;20.80;57.90;;;21.06;41.51;95296.81;5015546;28;20573;-48
2023/05/30 07:37:45;;;;;;;0.47;0.47;;;20.80;57.90;;;21.09;42.11;95298.97;5014077;28;20270;-47
2023/05/30 07:40:17;;;;;;;0.43;0.43;;;20.80;57.90;;;21.13;41.53;95293.94;5014049;28;20712;-46
2023/05/30 07:42:47;;;;;;;0.40;0.40;;;20.90;58.00;;;21.15;41.42;95286.53;5015480;28;20269;-44
2023/05/30 07:45:15;;;;;;;0.30;0.30;;;20.90;58.00;;;21.17;41.82;95287.09;5015152;28;20232;-45
2023/05/30 07:47:42;;;;;;;0.30;0.30;;;21.00;58.00;;;21.20;41.61;95283.91;5014830;28;20268;-46
2023/05/30 07:50:10;;;;;;;0.35;0.35;;;21.00;58.00;;;21.23;42.06;95286.09;5014572;28;20239;-47
2023/05/30 07:52:37;;;;;;;0.43;0.43;;;21.00;58.00;;;21.25;41.48;95283.94;5014806;28;20196;-47
2023/05/30 07:55:05;;;;;;;0.47;0.47;;;21.00;58.00;;;21.28;41.69;95278.13;5014681;28;20191;-46
2023/05/30 07:57:32;;;;;;;0.40;0.40;;;21.00;57.90;;;21.28;42.03;95281.59;5014801;28;20204;-46
2023/05/30 07:59:59;;;;;;;0.40;0.40;;;21.10;59.20;;;21.30;41.83;95278.69;5014511;28;20635;-46
2023/05/30 08:02:26;;;;;;;0.40;0.40;;;21.10;58.00;;;21.33;41.76;95280.06;5014952;28;20628;-48
2023/05/30 08:04:54;;;;;;;0.35;0.35;;;21.20;58.00;;;21.36;41.61;95285.69;5015181;28;20199;-46
2023/05/30 08:07:22;;;;;;;0.40;0.40;;;21.10;57.90;;;21.38;41.79;95277.44;5014752;28;20223;-46
2023/05/30 08:09:49;;;;;;;0.40;0.40;;;21.20;58.00;;;21.41;41.96;95280.41;5014258;28;20214;-47
2023/05/30 08:12:18;;;;;;;0.30;0.30;;;21.20;57.90;;;21.44;41.58;95287.88;5014906;28;20279;-48
2023/05/30 08:14:46;;;;;;;0.32;0.32;;;21.20;58.00;;;21.46;41.53;95282.31;5013426;28;20360;-50
2023/05/30 08:17:16;;;;;;;0.40;0.40;;;21.20;57.90;;;21.49;41.52;95289.81;5014788;28;20203;-50
2023/05/30 08:19:43;;;;;;;0.47;0.47;;;21.20;57.90;;;21.51;41.42;95294.91;5013561;28;20206;-51
2023/05/30 08:22:10;;;;;;;0.30;0.30;;;21.30;57.90;;;21.52;41.72;95296.50;5014265;28;20213;-49
2023/05/30 08:24:38;;;;;;;0.40;0.40;;;21.30;58.90;;;21.56;41.31;95295.78;5014533;28;20578;-50
2023/05/30 08:27:06;;;;;;;0.38;0.38;;;21.30;58.80;;;21.58;41.48;95288.34;5014738;28;20282;-48
2023/05/30 08:29:33;;;;;;;0.35;0.35;;;21.30;57.40;;;21.61;41.53;95299.59;5014385;28;20233;-52
2023/05/30 08:32:00;;;;;;;0.40;0.40;;;21.40;57.40;;;21.64;41.10;95296.41;5013488;28;20238;-49
2023/05/30 08:34:28;;;;;;;0.45;0.45;;;21.40;57.30;;;21.67;41.52;95302.03;5014004;28;20268;-49
2023/05/30 08:36:55;;;;;;;0.32;0.32;;;21.40;57.40;;;21.71;41.16;95300.47;5014303;28;20572;-51
2023/05/30 08:39:22;;;;;;;0.30;0.30;;;21.40;57.30;;;21.74;41.35;95304.50;5014188;28;20202;-48
2023/05/30 08:41:50;;;;;;;0.40;0.40;;;21.50;57.30;;;21.79;41.13;95306.41;5013943;28;20253;-48
2023/05/30 08:44:17;;;;;;;0.40;0.40;;;21.50;57.20;;;21.82;40.95;95300.56;5014466;28;20203;-48
2023/05/30 08:46:45;;;;;;;0.40;0.40;;;21.50;57.10;;;21.85;41.04;95300.03;5013182;28;20189;-48
2023/05/30 08:49:23;;;;;;;0.40;0.40;;;21.60;57.20;;;21.89;41.06;95295.84;5013740;28;20693;-48
2023/05/30 08:51:53;;;;;;;0.40;0.40;;;21.60;57.10;;;21.92;41.00;95292.63;5013812;28;20287;-48
2023/05/30 08:54:25;;;;;;;0.30;0.30;;;21.70;57.20;;;21.95;40.73;95299.34;5013798;28;20208;-47
2023/05/30 08:56:58;;;;;;;0.40;0.40;;;21.70;58.40;;;21.98;40.89;95291.63;5014059;28;20211;-48
2023/05/30 08:59:26;;;;;;;0.40;0.40;;;21.70;57.00;;;22.03;41.03;95296.19;5013655;28;20248;-48
2023/05/30 09:01:55;;;;;;;0.40;0.40;;;21.70;57.00;;;22.04;40.88;95297.81;5013891;28;20246;-49
2023/05/30 09:04:23;;;;;;;0.40;0.40;;;21.80;57.00;;;22.08;40.66;95296.22;5012772;28;20700;-49
2023/05/30 09:06:52;;;;;;;0.40;0.40;;;21.80;57.00;;;22.11;40.66;95305.63;5013601;28;20202;-48
2023/05/30 09:09:22;;;;;;;0.40;0.40;;;21.80;56.90;;;22.13;40.46;95301.63;5012560;28;20205;-48
2023/05/30 09:11:52;;;;;;;0.40;0.40;;;21.80;56.80;;;22.15;40.56;95306.72;5012587;28;20234;-48
2023/05/30 09:14:19;;;;;;;0.50;0.50;;;21.90;56.80;;;22.18;40.69;95308.88;5012522;28;20207;-48
2023/05/30 09:16:47;;;;;;;0.43;0.43;;;21.90;56.70;;;22.19;40.65;95311.31;5029062;28;20215;-48
2023/05/30 09:19:14;;;;;;;0.40;0.40;;;21.90;56.80;;;22.21;40.31;95305.69;5012548;28;20227;-48
2023/05/30 09:21:42;;;;;;;0.47;0.47;;;22.00;56.90;;;22.23;40.62;95307.03;5013243;28;20215;-48
2023/05/30 09:24:09;;;;;;;0.30;0.30;;;22.00;57.00;;;22.25;40.39;95306.00;5013314;28;20589;-48
2023/05/30 09:26:36;;;;;;;0.40;0.40;;;22.00;57.00;;;22.26;40.62;95304.94;5012686;28;20204;-49
2023/05/30 09:29:10;;;;;;;0.40;0.40;;;22.00;57.00;;;22.27;40.72;95299.31;5013521;28;20561;-47
2023/05/30 09:31:38;;;;;;;0.40;0.40;;;22.00;56.90;;;22.28;40.77;95295.59;5012052;28;20244;-48
2023/05/30 09:34:05;;;;;;;0.45;0.45;;;22.00;56.90;;;22.32;40.55;95303.91;5012246;28;20201;-48
2023/05/30 09:36:32;;;;;;;0.30;0.30;;;22.00;56.80;;;22.34;40.27;95310.59;5013151;28;20197;-48
2023/05/30 09:39:06;;;;;;;0.38;0.38;;;22.10;57.00;;;22.35;40.45;95304.19;5013238;28;20253;-53
2023/05/30 09:41:34;;;;;;;0.40;0.40;;;22.10;57.00;;;22.37;40.48;95303.94;5012665;28;20185;-48
2023/05/30 09:44:05;;;;;;;0.40;0.40;;;22.10;56.90;;;22.40;40.30;95306.13;5013253;28;20526;-48
2023/05/30 09:46:35;;;;;;;0.40;0.40;;;22.10;56.80;;;22.42;40.48;95304.00;5012391;28;20212;-48
2023/05/30 09:49:12;;;;;;;0.40;0.40;;;22.20;56.80;;;22.45;39.93;95306.16;5012930;28;20218;-48
2023/05/30 09:51:40;;;;;;;0.40;0.40;;;22.20;56.70;;;22.46;40.09;95307.78;5011818;28;20227;-48
2023/05/30 09:54:09;;;;;;;0.40;0.40;;;22.20;56.90;;;22.50;40.27;95305.41;5012036;28;20198;-51
2023/05/30 09:56:41;;;;;;;0.40;0.40;;;22.20;57.90;;;22.52;40.49;95311.28;5013100;28;20201;-48
2023/05/30 09:59:13;;;;;;;0.38;0.38;;;22.20;56.60;;;22.54;39.92;95309.16;5012890;28;20600;-51
2023/05/30 10:01:51;;;;;;;0.40;0.40;;;22.20;56.60;;;22.57;40.19;95305.16;5012749;28;20181;-48
2023/05/30 10:04:24;;;;;;;0.30;0.30;;;22.30;56.60;;;22.58;40.45;95306.78;5013021;28;20249;-49
2023/05/30 10:06:55;;;;;;;0.40;0.40;;;22.30;56.60;;;22.61;40.46;95308.94;5012599;28;20217;-49
2023/05/30 10:09:24;;;;;;;0.40;0.40;;;22.30;56.60;;;22.63;40.28;95312.16;5012664;28;20242;-51
2023/05/30 10:11:52;;;;;;;0.30;0.30;;;22.30;56.50;;;22.66;39.95;95300.94;5011581;28;20234;-49
2023/05/30 10:14:19;;;;;;;0.30;0.30;;;22.30;56.50;;;22.67;40.00;95306.03;5012836;28;20201;-52
2023/05/30 10:16:53;;;;;;;0.30;0.30;;;22.30;56.50;;;22.68;40.14;95296.16;5012540;28;20239;-51
2023/05/30 10:19:59;;;;;;;0.40;0.40;;;22.40;56.60;;;22.69;40.23;95311.94;5012271;28;20184;-52
2023/05/30 10:22:30;;;;;;;0.30;0.30;;;22.40;56.60;;;22.70;40.14;95304.69;5011596;28;20269;-50
2023/05/30 10:24:59;;;;;;;0.43;0.43;;;22.40;56.70;;;22.72;40.20;95305.25;5011895;28;20197;-52
2023/05/30 10:27:31;;;;;;;0.40;0.40;;;22.40;56.60;;;22.71;40.17;95306.31;5011545;28;20250;-53
2023/05/30 10:30:06;;;;;;;0.30;0.30;;;22.40;56.60;;;22.75;40.18;95303.94;5011958;28;20322;-48